Time;durP1;ratioP1;P1;durP2;ratioP2;P2;SDS_P1;SDS_P2;PMS_P1;PMS_P2;Temp;Humidity;BMP_temperature;BMP_pressure;BME280_temperature;BME280_humidity;BME280_pressure;Samples;Min_cycle;Max_cycle;Signal;HPM_P1;HPM_P2
2021/06/02 00:01:34;;;;;;;4.77;2.43;;;16.90;89.10;24.80;99690.00;;;;5071704;28;20798;-69
2021/06/02 00:03:59;;;;;;;4.30;2.60;;;16.90;89.90;24.80;99697.00;;;;5037795;28;20497;-69
2021/06/02 00:06:26;;;;;;;3.87;2.17;;;16.90;89.00;24.80;99684.00;;;;5020453;28;20614;-69
2021/06/02 00:08:52;;;;;;;4.47;2.60;;;16.90;89.10;24.70;99687.00;;;;5037995;28;20194;-69
2021/06/02 00:11:18;;;;;;;4.23;2.60;;;16.90;89.10;24.70;99691.00;;;;5036553;28;20455;-69
2021/06/02 00:13:43;;;;;;;4.40;2.67;;;16.90;89.10;24.70;99688.00;;;;5070542;28;20435;-70
2021/06/02 00:16:09;;;;;;;4.40;2.70;;;16.90;89.10;24.70;99690.00;;;;5020087;28;20678;-69
2021/06/02 00:18:35;;;;;;;4.43;2.77;;;16.90;89.10;24.80;99685.00;;;;5036951;28;20200;-69
2021/06/02 00:21:00;;;;;;;4.00;2.17;;;16.90;89.10;24.70;99679.00;;;;5037450;28;20710;-70
2021/06/02 00:23:26;;;;;;;4.73;2.90;;;16.90;89.20;24.70;99683.00;;;;5053077;28;20188;-69
2021/06/02 00:25:52;;;;;;;5.30;2.70;;;16.90;89.20;24.90;99685.00;;;;5070505;28;20225;-70
2021/06/02 00:28:18;;;;;;;4.37;2.67;;;16.90;89.10;24.80;99681.00;;;;5070878;28;20653;-70
2021/06/02 00:30:46;;;;;;;5.20;3.13;;;16.90;89.10;24.80;99690.00;;;;5037101;28;20197;-69
2021/06/02 00:33:12;;;;;;;4.80;2.50;;;16.90;89.10;24.80;99679.00;;;;5053291;28;20186;-69
2021/06/02 00:35:38;;;;;;;4.00;2.40;;;16.80;89.00;24.80;99692.00;;;;5037029;28;20430;-70
2021/06/02 00:38:04;;;;;;;4.40;2.70;;;16.90;89.20;24.70;99694.00;;;;5036390;28;20429;-72
2021/06/02 00:40:47;;;;;;;4.00;2.20;;;16.90;89.10;24.80;99676.00;;;;5036202;28;20283;-69
2021/06/02 00:43:15;;;;;;;4.17;2.47;;;16.80;89.10;24.70;99679.00;;;;5038037;28;20921;-70
2021/06/02 00:45:42;;;;;;;3.97;2.23;;;16.80;89.10;24.80;99676.00;;;;5053411;28;21022;-70
2021/06/02 00:48:08;;;;;;;4.23;2.60;;;16.80;89.10;24.90;99685.00;;;;5036228;28;20419;-69
2021/06/02 00:50:33;;;;;;;4.17;2.57;;;16.80;89.10;24.80;99685.00;;;;5036714;28;20522;-69
2021/06/02 00:52:59;;;;;;;4.50;2.50;;;16.80;89.90;24.80;99690.00;;;;5069137;28;20219;-69
2021/06/02 00:55:25;;;;;;;4.00;2.20;;;16.80;89.10;24.80;99687.00;;;;5036511;28;20213;-70
2021/06/02 00:57:54;;;;;;;5.67;2.70;;;16.80;89.10;24.70;99693.00;;;;5053314;28;20431;-70
2021/06/02 01:00:20;;;;;;;4.67;2.83;;;16.80;89.10;24.80;99702.00;;;;5068859;28;20567;-70
2021/06/02 01:02:51;;;;;;;4.50;2.80;;;16.80;89.10;24.70;99688.00;;;;5071040;28;20480;-71
2021/06/02 01:05:20;;;;;;;4.50;2.70;;;16.80;89.10;24.80;99694.00;;;;5070804;28;20466;-70
2021/06/02 01:07:46;;;;;;;4.90;2.40;;;16.80;89.20;24.70;99693.00;;;;5052937;28;20480;-70
2021/06/02 01:10:13;;;;;;;4.80;2.60;;;16.80;89.10;24.60;99692.00;;;;5036342;28;20542;-69
2021/06/02 01:12:38;;;;;;;5.40;2.60;;;16.80;89.20;24.60;99694.00;;;;5068888;28;20451;-69
2021/06/02 01:15:05;;;;;;;4.43;2.90;;;16.80;89.20;24.80;99689.00;;;;5035900;28;20440;-69
2021/06/02 01:17:31;;;;;;;4.70;2.77;;;16.80;89.20;24.60;99689.00;;;;5052378;28;20282;-69
2021/06/02 01:19:59;;;;;;;4.20;2.60;;;16.80;89.20;24.70;99696.00;;;;5068308;28;21041;-69
2021/06/02 01:22:27;;;;;;;4.57;3.07;;;16.80;89.20;24.60;99691.00;;;;5052314;28;20410;-70
2021/06/02 01:24:52;;;;;;;4.73;3.00;;;16.80;89.20;24.70;99695.00;;;;5053121;28;20450;-69
2021/06/02 01:27:18;;;;;;;4.57;2.90;;;16.80;89.20;24.70;99695.00;;;;5069191;28;20798;-70
2021/06/02 01:29:47;;;;;;;4.80;3.03;;;16.70;89.10;24.80;99697.00;;;;5068344;28;20191;-70
2021/06/02 01:32:56;;;;;;;4.63;3.10;;;16.70;89.10;24.80;99694.00;;;;5052877;28;20593;-70
2021/06/02 01:35:52;;;;;;;4.47;2.70;;;16.70;89.20;24.60;99695.00;;;;5068848;28;20474;-69
2021/06/02 01:38:21;;;;;;;5.00;3.00;;;16.70;89.20;24.60;99706.00;;;;5052943;28;20565;-69
2021/06/02 01:40:59;;;;;;;5.33;3.00;;;16.70;89.20;24.50;99701.00;;;;5069912;28;20880;-69
2021/06/02 01:43:49;;;;;;;5.20;2.97;;;16.70;89.20;24.60;99723.00;;;;5069892;28;20426;-69
2021/06/02 01:47:00;;;;;;;4.40;2.70;;;16.70;89.20;24.50;99715.00;;;;5069971;28;20795;-70
2021/06/02 01:49:35;;;;;;;4.10;2.70;;;16.70;89.20;24.50;99706.00;;;;5067519;28;20481;-69
2021/06/02 01:52:38;;;;;;;4.57;2.93;;;16.70;89.20;24.50;99712.00;;;;5070426;28;20487;-70
2021/06/02 01:56:05;;;;;;;5.20;2.90;;;16.70;89.20;24.50;99715.00;;;;5069471;28;20987;-70
2021/06/02 01:59:04;;;;;;;4.50;3.07;;;16.70;89.20;24.60;99713.00;;;;5068895;28;20422;-69
2021/06/02 02:02:02;;;;;;;4.00;2.50;;;16.70;89.20;24.50;99709.00;;;;5069765;28;20466;-69
2021/06/02 02:05:03;;;;;;;7.70;3.00;;;16.70;89.20;24.50;99709.00;;;;5069028;28;20924;-70
2021/06/02 02:08:16;;;;;;;4.50;2.80;;;16.70;89.20;24.50;99704.00;;;;5051890;28;20450;-69
2021/06/02 02:10:49;;;;;;;4.40;3.13;;;16.70;89.20;24.60;99702.00;;;;5068425;28;20530;-69
2021/06/02 02:13:57;;;;;;;4.30;2.70;;;16.70;89.20;24.60;99709.00;;;;5052505;28;20424;-70
2021/06/02 02:16:46;;;;;;;4.33;2.60;;;16.70;89.20;24.40;99704.00;;;;5067759;28;20455;-69
2021/06/02 02:19:59;;;;;;;4.27;2.70;;;16.70;89.20;24.40;99708.00;;;;5069515;28;20475;-69
2021/06/02 02:22:54;;;;;;;4.20;2.80;;;16.70;89.20;24.50;99697.00;;;;5023828;28;20455;-70
2021/06/02 02:25:39;;;;;;;4.40;2.90;;;16.70;89.20;24.40;99701.00;;;;5067315;28;20426;-68
2021/06/02 02:28:23;;;;;;;4.50;2.77;;;16.70;89.20;24.50;99704.00;;;;5069169;28;20407;-69
2021/06/02 02:31:10;;;;;;;4.83;3.40;;;16.70;89.30;24.30;99709.00;;;;5067991;28;20519;-69
2021/06/02 02:33:49;;;;;;;4.60;2.73;;;16.60;89.10;24.40;99703.00;;;;5069587;28;20522;-70
2021/06/02 02:36:37;;;;;;;4.50;2.93;;;16.60;89.10;24.60;99700.00;;;;5052931;28;20430;-69
2021/06/02 02:39:49;;;;;;;4.30;2.87;;;16.60;89.10;24.50;99709.00;;;;5067547;28;20519;-70
2021/06/02 02:42:47;;;;;;;4.73;3.10;;;16.60;89.10;24.50;99708.00;;;;5068609;28;20411;-70
2021/06/02 02:45:36;;;;;;;4.73;3.10;;;16.60;89.10;24.40;99702.00;;;;5053508;28;20443;-69
2021/06/02 02:48:33;;;;;;;5.37;2.80;;;16.60;89.10;24.50;99704.00;;;;5068384;28;20450;-69
2021/06/02 02:51:04;;;;;;;4.30;2.93;;;16.60;89.10;24.40;99707.00;;;;5067541;28;20451;-70
2021/06/02 02:53:57;;;;;;;4.67;3.07;;;16.60;89.10;24.50;99711.00;;;;5050778;28;20440;-69
2021/06/02 02:56:56;;;;;;;4.30;2.73;;;16.60;89.10;24.40;99718.00;;;;5069558;28;20452;-69
2021/06/02 02:59:47;;;;;;;4.90;3.33;;;16.60;89.10;24.40;99724.00;;;;5053779;28;20438;-70
2021/06/02 03:02:34;;;;;;;4.70;3.20;;;16.60;89.10;24.40;99715.00;;;;5055728;28;20453;-70
2021/06/02 03:05:01;;;;;;;4.60;3.17;;;16.60;89.10;24.30;99729.00;;;;5057368;28;20414;-70
2021/06/02 03:07:28;;;;;;;5.00;2.83;;;16.60;89.10;24.30;99729.00;;;;5054739;28;20499;-69
2021/06/02 03:10:09;;;;;;;4.37;2.77;;;16.60;89.10;24.30;99725.00;;;;5038627;28;20929;-69
2021/06/02 03:13:14;;;;;;;4.50;2.60;;;16.60;89.10;24.40;99733.00;;;;5055536;28;20860;-69
2021/06/02 03:15:50;;;;;;;5.23;3.00;;;16.60;89.10;24.40;99731.00;;;;5054052;28;20825;-70
2021/06/02 03:18:21;;;;;;;4.53;2.87;;;16.60;89.10;24.40;99735.00;;;;5038531;28;20769;-69
2021/06/02 03:21:26;;;;;;;4.20;2.67;;;16.60;89.10;24.40;99742.00;;;;5070716;28;20577;-70
2021/06/02 03:24:33;;;;;;;4.17;2.63;;;16.60;89.20;24.30;99738.00;;;;5071354;28;20410;-71
2021/06/02 03:27:17;;;;;;;4.50;3.20;;;16.50;89.00;24.30;99739.00;;;;5058004;28;20450;-70
2021/06/02 03:30:04;;;;;;;4.00;2.50;;;16.60;89.20;24.30;99751.00;;;;5054559;28;20580;-70
2021/06/02 03:33:23;;;;;;;4.10;2.70;;;16.50;89.00;24.10;99748.00;;;;5071721;28;20919;-70
2021/06/02 03:36:04;;;;;;;5.10;3.13;;;16.50;89.10;24.20;99749.00;;;;5072205;28;20446;-69
2021/06/02 03:39:10;;;;;;;4.57;2.90;;;16.50;89.10;24.10;99752.00;;;;5071205;28;20450;-70
2021/06/02 03:41:50;;;;;;;4.73;2.87;;;16.50;89.10;24.10;99749.00;;;;5056338;28;20524;-70
2021/06/02 03:44:59;;;;;;;4.60;2.50;;;16.50;89.10;24.20;99749.00;;;;5071368;28;20438;-70
2021/06/02 03:48:12;;;;;;;4.30;2.67;;;16.50;89.00;24.10;99748.00;;;;5070926;28;20434;-70
2021/06/02 03:51:20;;;;;;;5.27;2.80;;;16.50;89.00;24.00;99741.00;;;;5071452;28;20414;-70
2021/06/02 03:53:54;;;;;;;4.77;3.30;;;16.50;89.00;24.10;99751.00;;;;5069255;28;20463;-70
2021/06/02 03:56:50;;;;;;;4.20;2.50;;;16.50;89.00;24.00;99754.00;;;;5068400;28;20460;-70
2021/06/02 03:59:41;;;;;;;4.43;2.90;;;16.50;89.00;24.00;99756.00;;;;5070938;28;20479;-69
2021/06/02 04:02:26;;;;;;;5.50;3.70;;;16.50;89.10;24.00;99743.00;;;;5054122;28;20460;-70
2021/06/02 04:05:19;;;;;;;4.30;2.90;;;16.50;89.10;24.10;99761.00;;;;5038656;28;20435;-70
2021/06/02 04:08:13;;;;;;;4.43;2.83;;;16.50;89.00;23.90;99766.00;;;;5070556;28;20516;-70
2021/06/02 04:10:57;;;;;;;4.60;3.10;;;16.50;89.10;23.90;99761.00;;;;5069771;28;20550;-70
2021/06/02 04:13:58;;;;;;;4.50;2.80;;;16.50;89.10;23.80;99764.00;;;;5040531;28;20463;-70
2021/06/02 04:16:36;;;;;;;4.50;3.00;;;16.50;89.00;23.90;99767.00;;;;5053383;28;20552;-70
2021/06/02 04:19:14;;;;;;;4.40;2.83;;;16.50;89.00;23.90;99739.00;;;;5053825;28;20459;-70
2021/06/02 04:21:43;;;;;;;4.20;3.00;;;16.50;89.10;23.80;99776.00;;;;5037867;28;20497;-70
2021/06/02 04:24:12;;;;;;;4.40;2.60;;;16.50;89.10;23.90;99781.00;;;;5021379;28;20769;-71
2021/06/02 04:26:38;;;;;;;5.50;3.23;;;16.50;89.10;24.00;99787.00;;;;5037176;28;20463;-70
2021/06/02 04:29:09;;;;;;;4.90;3.60;;;16.50;89.10;24.10;99783.00;;;;5070244;28;20504;-71
2021/06/02 04:31:35;;;;;;;5.10;3.20;;;16.50;89.10;24.10;99778.00;;;;5053055;28;20649;-70
2021/06/02 04:34:01;;;;;;;5.00;3.50;;;16.50;89.10;24.00;99788.00;;;;5053628;28;20486;-70
2021/06/02 04:36:27;;;;;;;5.03;3.33;;;16.40;89.00;24.00;99789.00;;;;5053237;28;20495;-70
2021/06/02 04:38:55;;;;;;;4.50;3.20;;;16.50;89.10;23.90;99793.00;;;;5069799;28;20644;-71
2021/06/02 04:41:26;;;;;;;4.70;3.33;;;16.40;89.00;24.00;99789.00;;;;5053188;28;20912;-70
2021/06/02 04:43:55;;;;;;;5.37;3.47;;;16.40;88.90;24.10;99790.00;;;;5037293;28;20432;-70
2021/06/02 04:46:21;;;;;;;5.00;3.03;;;16.40;89.00;24.00;99795.00;;;;5036546;28;20535;-70
2021/06/02 04:48:47;;;;;;;4.60;2.90;;;16.40;88.90;24.10;99804.00;;;;5070075;28;20431;-70
2021/06/02 04:51:37;;;;;;;4.60;3.00;;;16.40;89.00;24.00;99800.00;;;;5069186;28;20525;-70
2021/06/02 04:54:37;;;;;;;4.77;3.27;;;16.40;88.90;24.00;99803.00;;;;5071110;28;20428;-70
2021/06/02 04:57:39;;;;;;;4.50;3.17;;;16.40;88.90;24.10;99807.00;;;;5069739;28;20462;-70
2021/06/02 05:00:35;;;;;;;4.77;3.27;;;16.40;88.90;24.10;99799.00;;;;5070086;28;20475;-70
2021/06/02 05:03:32;;;;;;;4.67;3.00;;;16.40;89.00;24.20;99807.00;;;;5070953;28;20445;-70
2021/06/02 05:06:45;;;;;;;4.60;3.33;;;16.40;89.00;24.20;99788.00;;;;5069193;28;20494;-70
2021/06/02 05:09:42;;;;;;;4.97;3.63;;;16.40;89.10;24.10;99812.00;;;;5069553;28;20421;-70
2021/06/02 05:12:23;;;;;;;4.70;3.10;;;16.40;89.10;24.10;99809.00;;;;5069870;28;20526;-70
2021/06/02 05:15:35;;;;;;;4.80;3.20;;;16.40;89.10;23.90;99813.00;;;;5069358;28;20485;-71
2021/06/02 05:18:31;;;;;;;4.83;3.20;;;16.40;89.10;24.00;99786.00;;;;5070501;28;20436;-71
2021/06/02 05:24:22;;;;;;;4.90;3.03;;;16.40;89.10;23.90;99802.00;;;;5068685;28;20450;-71
2021/06/02 05:27:15;;;;;;;4.80;3.20;;;16.40;89.20;23.80;99797.00;;;;5069089;28;20462;-71
2021/06/02 05:30:13;;;;;;;6.10;3.57;;;16.40;89.20;24.00;99804.00;;;;5070736;28;20413;-71
2021/06/02 05:33:36;;;;;;;5.10;3.10;;;16.40;89.20;23.90;99810.00;;;;5069202;28;20420;-71
2021/06/02 05:36:38;;;;;;;4.70;3.50;;;16.40;89.30;23.70;99809.00;;;;5052627;28;20466;-71
2021/06/02 05:39:31;;;;;;;4.50;3.00;;;16.40;89.30;23.80;99802.00;;;;5070374;28;20665;-71
2021/06/02 05:42:22;;;;;;;5.17;3.40;;;16.40;89.30;23.80;99811.00;;;;5069636;28;20421;-72
2021/06/02 05:45:31;;;;;;;4.90;3.20;;;16.40;89.30;23.80;99811.00;;;;5066577;28;20471;-72
2021/06/02 05:48:33;;;;;;;4.20;2.60;;;16.40;89.30;23.70;99810.00;;;;5060981;28;20619;-72
2021/06/02 05:51:30;;;;;;;5.23;3.40;;;16.40;89.30;23.90;99802.00;;;;5061647;28;20799;-71
2021/06/02 05:54:50;;;;;;;5.23;3.27;;;16.40;89.30;23.80;99805.00;;;;5067285;28;20936;-72
2021/06/02 05:58:03;;;;;;;4.80;3.13;;;16.40;89.30;23.90;99808.00;;;;5068782;28;20546;-71
2021/06/02 06:00:49;;;;;;;5.10;3.90;;;16.40;89.40;23.80;99812.00;;;;5067135;28;20775;-71
2021/06/02 06:04:00;;;;;;;4.37;3.10;;;16.40;89.40;23.90;99826.00;;;;5067368;28;20439;-72
2021/06/02 06:07:10;;;;;;;4.83;3.30;;;16.40;89.30;23.90;99805.00;;;;5066243;28;20475;-72
2021/06/02 06:10:02;;;;;;;4.37;2.77;;;16.40;89.30;23.90;99808.00;;;;5039558;28;20439;-72
2021/06/02 06:12:46;;;;;;;4.50;3.00;;;16.40;89.40;23.90;99807.00;;;;5067893;28;20432;-72
2021/06/02 06:15:49;;;;;;;4.43;2.90;;;16.40;89.40;23.80;99811.00;;;;5064036;28;20475;-71
2021/06/02 06:19:01;;;;;;;4.50;3.00;;;16.40;89.40;24.00;99806.00;;;;5068332;28;21008;-72
2021/06/02 06:21:45;;;;;;;4.80;3.30;;;16.40;89.40;24.00;99820.00;;;;5055298;28;20444;-72
2021/06/02 06:24:14;;;;;;;5.20;3.70;;;16.40;89.40;24.00;99805.00;;;;5067967;28;20441;-72
2021/06/02 06:27:21;;;;;;;4.70;3.30;;;16.40;89.40;24.00;99817.00;;;;5067820;28;21097;-72
2021/06/02 06:30:02;;;;;;;4.83;3.53;;;16.40;89.40;24.00;99821.00;;;;5055977;28;20847;-74
2021/06/02 06:32:29;;;;;;;5.23;3.30;;;16.40;89.40;23.90;99805.00;;;;5066640;28;20469;-74
2021/06/02 06:34:55;;;;;;;5.20;3.70;;;16.40;89.40;24.00;99802.00;;;;5053190;28;20843;-74
2021/06/02 06:37:21;;;;;;;5.30;3.20;;;16.40;89.40;24.10;99801.00;;;;5020904;28;20416;-74
2021/06/02 06:39:52;;;;;;;6.10;3.70;;;16.40;89.40;24.20;99795.00;;;;5038555;28;20471;-74
2021/06/02 06:42:21;;;;;;;5.47;3.57;;;16.40;89.40;24.00;99806.00;;;;5038893;28;20959;-74
2021/06/02 06:44:49;;;;;;;4.63;3.33;;;16.40;89.40;24.10;99803.00;;;;5038181;28;20443;-74
2021/06/02 06:47:15;;;;;;;5.33;3.07;;;16.40;89.40;24.20;99805.00;;;;5072245;28;20487;-74
2021/06/02 06:49:48;;;;;;;5.10;3.30;;;16.40;89.40;24.10;99823.00;;;;5039050;28;20503;-74
2021/06/02 06:52:14;;;;;;;6.20;3.20;;;16.40;89.40;24.10;99809.00;;;;5039346;28;20451;-74
2021/06/02 06:54:40;;;;;;;4.70;3.60;;;16.40;89.40;24.10;99778.00;;;;5055355;28;20436;-74
2021/06/02 06:57:06;;;;;;;4.90;3.47;;;16.40;89.40;24.20;99804.00;;;;5038318;28;20244;-74
2021/06/02 06:59:33;;;;;;;4.70;3.30;;;16.40;89.40;24.20;99805.00;;;;5071598;28;20217;-75
2021/06/02 07:01:58;;;;;;;4.60;3.30;;;16.40;89.40;24.30;99785.00;;;;5022218;28;20499;-74
2021/06/02 07:04:24;;;;;;;4.90;3.37;;;16.40;89.40;24.30;99800.00;;;;5054693;28;20427;-74
2021/06/02 07:06:50;;;;;;;5.40;3.50;;;16.40;89.40;24.40;99809.00;;;;5038453;28;20626;-74
2021/06/02 07:09:16;;;;;;;4.60;3.40;;;16.40;89.40;24.40;99822.00;;;;5038290;28;20185;-74
2021/06/02 07:11:43;;;;;;;5.07;3.40;;;16.40;89.40;24.40;99803.00;;;;5072443;28;20559;-74
2021/06/02 07:14:11;;;;;;;4.77;3.23;;;16.40;89.40;24.20;99817.00;;;;5055252;28;20994;-75
2021/06/02 07:16:42;;;;;;;4.83;3.33;;;16.40;89.40;24.20;99828.00;;;;5040011;28;20475;-72
2021/06/02 07:19:08;;;;;;;4.47;3.03;;;16.40;89.40;24.30;99832.00;;;;5054272;28;21029;-72
2021/06/02 07:21:35;;;;;;;4.90;3.30;;;16.40;89.40;24.30;99808.00;;;;5055165;28;20201;-73
2021/06/02 07:24:03;;;;;;;4.70;3.37;;;16.40;89.40;24.30;99828.00;;;;5037906;28;20403;-73
2021/06/02 07:26:29;;;;;;;4.90;3.47;;;16.40;89.40;24.40;99833.00;;;;5037706;28;20468;-73
2021/06/02 07:28:55;;;;;;;5.30;3.43;;;16.40;89.40;24.20;99830.00;;;;5070494;28;20431;-73
2021/06/02 07:31:20;;;;;;;5.27;3.83;;;16.40;89.50;24.40;99831.00;;;;5053757;28;20487;-73
2021/06/02 07:33:47;;;;;;;5.53;3.70;;;16.40;89.40;24.20;99827.00;;;;5070705;28;20492;-73
2021/06/02 07:36:13;;;;;;;5.33;3.90;;;16.40;89.50;24.30;99828.00;;;;5038097;28;20372;-73
2021/06/02 07:38:40;;;;;;;5.53;3.13;;;16.40;89.50;24.30;99824.00;;;;5021546;28;20608;-73
2021/06/02 07:41:06;;;;;;;4.87;3.50;;;16.40;89.40;24.20;99828.00;;;;5037931;28;20419;-73
2021/06/02 07:43:32;;;;;;;4.70;3.30;;;16.40;89.50;24.20;99837.00;;;;5070865;28;20410;-73
2021/06/02 07:45:57;;;;;;;4.93;3.43;;;16.40;89.50;24.30;99827.00;;;;5071253;28;20455;-73
2021/06/02 07:48:23;;;;;;;5.43;3.83;;;16.40;89.50;24.30;99827.00;;;;5070865;28;20222;-74
2021/06/02 07:50:49;;;;;;;5.07;2.90;;;16.40;89.50;24.30;99833.00;;;;5070742;28;20198;-73
2021/06/02 07:53:15;;;;;;;4.67;3.50;;;16.40;89.50;24.30;99825.00;;;;5054558;28;20178;-73
2021/06/02 07:55:40;;;;;;;5.20;2.93;;;16.40;89.50;24.30;99828.00;;;;5070390;28;20205;-74
2021/06/02 07:58:06;;;;;;;5.30;3.20;;;16.40;89.50;24.30;99838.00;;;;5072464;28;20185;-74
2021/06/02 08:00:32;;;;;;;5.03;3.33;;;16.40;89.50;24.20;99825.00;;;;5037157;28;20205;-73
2021/06/02 08:02:58;;;;;;;5.00;3.60;;;16.40;89.50;24.10;99827.00;;;;5020415;28;20280;-73
2021/06/02 08:05:23;;;;;;;4.97;3.43;;;16.40;89.50;24.20;99829.00;;;;5053852;28;20243;-73
2021/06/02 08:07:49;;;;;;;4.50;3.03;;;16.40;89.50;24.10;99833.00;;;;5054669;28;20275;-73
2021/06/02 08:10:16;;;;;;;4.73;3.10;;;16.50;89.60;24.10;99841.00;;;;5071058;28;20542;-73
2021/06/02 08:12:42;;;;;;;5.17;3.27;;;16.40;89.50;24.30;99834.00;;;;5072008;28;20212;-74
2021/06/02 08:15:09;;;;;;;4.53;3.13;;;16.40;89.50;24.10;99836.00;;;;5053341;28;20489;-74
2021/06/02 08:17:36;;;;;;;5.60;3.40;;;16.50;89.60;24.10;99836.00;;;;5037385;28;20441;-75
2021/06/02 08:20:04;;;;;;;4.97;3.30;;;16.40;89.50;24.10;99838.00;;;;5053808;28;20546;-75
2021/06/02 08:22:29;;;;;;;5.80;3.20;;;16.40;89.50;24.00;99842.00;;;;5070297;28;20444;-75
2021/06/02 08:24:55;;;;;;;4.50;2.80;;;16.40;89.50;24.10;99847.00;;;;5071215;28;20410;-76
2021/06/02 08:27:21;;;;;;;5.17;3.50;;;16.50;89.60;24.10;99846.00;;;;5053559;28;20185;-75
2021/06/02 08:29:46;;;;;;;5.13;3.50;;;16.40;89.50;24.10;99850.00;;;;5069830;28;20204;-76
2021/06/02 08:32:12;;;;;;;5.07;3.07;;;16.50;89.60;24.10;99843.00;;;;5071517;28;20723;-75
2021/06/02 08:34:38;;;;;;;5.27;3.40;;;16.50;89.70;23.90;99841.00;;;;5071390;28;20261;-76
2021/06/02 08:37:04;;;;;;;5.37;3.70;;;16.50;89.70;24.10;99847.00;;;;5053281;28;20284;-76
2021/06/02 08:39:30;;;;;;;5.40;3.37;;;16.40;89.60;24.10;99849.00;;;;5069718;28;20241;-76
2021/06/02 08:41:56;;;;;;;5.40;3.60;;;16.50;89.70;24.00;99847.00;;;;5053844;28;20499;-82
2021/06/02 08:44:22;;;;;;;4.67;2.80;;;16.50;89.90;24.00;99853.00;;;;5036238;28;20177;-82
2021/06/02 08:46:48;;;;;;;4.90;3.30;;;16.50;89.70;24.10;99856.00;;;;5035973;28;20463;-83
2021/06/02 08:49:18;;;;;;;4.50;3.50;;;16.40;89.60;24.00;99839.00;;;;5018535;28;20850;-82
2021/06/02 08:51:44;;;;;;;5.00;3.60;;;16.50;89.70;24.10;99842.00;;;;5034471;28;20288;-84
2021/06/02 08:54:09;;;;;;;4.87;3.03;;;16.50;89.80;23.90;99851.00;;;;5034751;28;20532;-83
2021/06/02 08:56:43;;;;;;;5.00;3.23;;;16.50;89.80;24.00;99854.00;;;;5034836;28;20558;-83
2021/06/02 08:59:09;;;;;;;5.00;3.13;;;16.50;89.80;24.00;99848.00;;;;5033525;28;20177;-83
2021/06/02 09:01:35;;;;;;;5.10;3.50;;;16.50;89.80;24.00;99860.00;;;;5035072;28;20462;-83
2021/06/02 09:04:06;;;;;;;4.83;3.53;;;16.50;89.80;24.10;99863.00;;;;5069132;28;20501;-83
2021/06/02 09:06:32;;;;;;;4.50;3.10;;;16.50;89.70;24.10;99858.00;;;;5018524;28;20480;-84
2021/06/02 09:09:00;;;;;;;4.73;3.17;;;16.50;89.70;24.00;99854.00;;;;5020352;28;20436;-81
2021/06/02 09:11:26;;;;;;;5.77;3.30;;;16.50;89.70;24.20;99858.00;;;;5036372;28;20466;-83
2021/06/02 09:13:51;;;;;;;4.53;3.23;;;16.50;89.70;24.00;99854.00;;;;5036546;28;20463;-82
2021/06/02 09:16:22;;;;;;;5.03;3.23;;;16.50;89.80;24.00;99855.00;;;;5052850;28;20456;-83
2021/06/02 09:18:57;;;;;;;5.03;3.30;;;16.50;89.80;23.90;99858.00;;;;5052597;28;20217;-83
2021/06/02 09:21:22;;;;;;;5.50;3.80;;;16.50;89.80;24.00;99850.00;;;;5070589;28;20422;-82
2021/06/02 09:23:49;;;;;;;4.20;2.60;;;16.50;89.80;24.00;99861.00;;;;5036630;28;20444;-82
2021/06/02 09:26:30;;;;;;;4.77;2.77;;;16.50;89.80;24.20;99854.00;;;;5019681;28;20198;-83
2021/06/02 09:29:11;;;;;;;4.53;3.37;;;16.50;89.80;24.20;99807.00;;;;5069756;28;20447;-84
2021/06/02 09:31:38;;;;;;;5.30;3.73;;;16.50;89.80;24.10;99840.00;;;;5068768;28;20535;-83
2021/06/02 09:34:22;;;;;;;4.80;3.23;;;16.50;89.80;24.20;99846.00;;;;5068775;28;20443;-83
2021/06/02 09:36:51;;;;;;;5.07;3.47;;;16.50;89.80;24.20;99835.00;;;;5053793;28;20529;-83
2021/06/02 09:39:19;;;;;;;5.27;3.00;;;16.50;89.80;24.20;99848.00;;;;5052307;28;20505;-83
2021/06/02 09:41:53;;;;;;;4.73;3.00;;;16.50;89.80;24.20;99842.00;;;;5052518;28;20722;-83
2021/06/02 09:44:27;;;;;;;4.67;3.40;;;16.50;89.80;24.10;99839.00;;;;5052925;28;20929;-84
2021/06/02 09:46:58;;;;;;;4.80;2.97;;;16.50;89.80;24.10;99858.00;;;;5045832;28;20525;-84
2021/06/02 09:49:24;;;;;;;4.53;3.00;;;16.50;89.80;24.20;99853.00;;;;5051083;28;20440;-83
2021/06/02 09:51:50;;;;;;;4.37;2.93;;;16.50;89.80;24.20;99840.00;;;;5034973;28;20459;-83
2021/06/02 09:54:20;;;;;;;4.60;3.00;;;16.50;89.80;24.30;99844.00;;;;5051170;28;20946;-83
2021/06/02 09:56:46;;;;;;;4.67;3.00;;;16.50;89.80;24.20;99834.00;;;;5068509;28;20197;-83
2021/06/02 09:59:12;;;;;;;4.97;3.30;;;16.60;90.00;24.20;99827.00;;;;5035018;28;21005;-83
2021/06/02 10:01:59;;;;;;;4.63;3.00;;;16.50;89.80;24.10;99831.00;;;;5033001;28;20430;-83
2021/06/02 10:04:35;;;;;;;5.00;3.40;;;16.60;89.90;24.10;99842.00;;;;5049071;28;20727;-83
2021/06/02 10:07:02;;;;;;;4.67;3.13;;;16.60;90.00;24.20;99828.00;;;;5049701;28;20479;-84
2021/06/02 10:09:32;;;;;;;4.50;3.00;;;16.60;89.90;24.40;99843.00;;;;5031164;28;20466;-83
2021/06/02 10:12:00;;;;;;;5.07;3.37;;;16.60;90.00;24.30;99836.00;;;;5031931;28;20861;-83
2021/06/02 10:14:26;;;;;;;4.53;2.87;;;16.60;89.90;24.40;99848.00;;;;5048097;28;20432;-83
2021/06/02 10:16:52;;;;;;;4.37;2.73;;;16.60;89.90;24.50;99848.00;;;;5030286;28;20460;-83
2021/06/02 10:19:42;;;;;;;4.50;3.20;;;16.60;90.00;24.40;99846.00;;;;5048126;28;20471;-83
2021/06/02 10:22:28;;;;;;;4.93;3.20;;;16.60;89.90;24.40;99821.00;;;;5047923;28;20204;-84
2021/06/02 10:24:59;;;;;;;5.63;3.33;;;16.60;90.00;24.30;99851.00;;;;5033243;28;20522;-84
2021/06/02 10:27:25;;;;;;;4.70;3.13;;;16.60;89.90;24.40;99837.00;;;;5032178;28;20428;-83
2021/06/02 10:29:51;;;;;;;4.30;2.73;;;16.60;89.90;24.60;99837.00;;;;5031674;28;20524;-82
2021/06/02 10:32:18;;;;;;;4.73;3.33;;;16.60;90.00;24.40;99842.00;;;;5048483;28;20555;-83
2021/06/02 10:34:43;;;;;;;4.90;3.27;;;16.60;90.40;24.50;99844.00;;;;4999839;28;20524;-83
2021/06/02 10:37:13;;;;;;;4.90;3.30;;;16.60;89.90;24.40;99840.00;;;;5048806;28;20559;-83
2021/06/02 10:39:40;;;;;;;4.80;3.00;;;16.60;89.90;24.50;99840.00;;;;5032636;28;20850;-83
2021/06/02 10:42:14;;;;;;;4.47;2.70;;;16.60;89.90;24.50;99838.00;;;;5032120;28;20463;-83
2021/06/02 10:44:41;;;;;;;5.20;3.43;;;16.60;89.90;24.50;99850.00;;;;5017291;28;20428;-83
2021/06/02 10:47:07;;;;;;;4.83;3.50;;;16.60;89.90;24.50;99856.00;;;;5032023;28;20724;-83
2021/06/02 10:49:35;;;;;;;4.73;2.97;;;16.60;90.00;24.50;99846.00;;;;5030938;28;20447;-83
2021/06/02 10:52:01;;;;;;;4.37;3.00;;;16.60;89.90;24.60;99837.00;;;;5048178;28;20205;-83
2021/06/02 10:54:31;;;;;;;4.73;3.03;;;16.60;89.90;24.60;99835.00;;;;5031977;28;20434;-83
2021/06/02 10:56:56;;;;;;;6.40;3.03;;;16.60;89.90;24.50;99832.00;;;;5047594;28;20203;-84
2021/06/02 10:59:37;;;;;;;5.60;3.17;;;16.60;89.90;24.70;99857.00;;;;5049618;28;20838;-84
2021/06/02 11:02:29;;;;;;;4.67;3.20;;;16.70;90.00;24.60;99846.00;;;;5032725;28;20620;-83
2021/06/02 11:05:00;;;;;;;4.17;2.70;;;16.70;90.00;24.60;99837.00;;;;5047701;28;20403;-84
2021/06/02 11:07:27;;;;;;;4.67;2.90;;;16.70;90.00;24.70;99834.00;;;;5047409;28;20813;-83
2021/06/02 11:09:52;;;;;;;4.80;3.33;;;16.70;90.00;24.50;99834.00;;;;5031962;28;20935;-83
2021/06/02 11:12:18;;;;;;;4.77;3.20;;;16.70;90.00;24.70;99834.00;;;;5048676;28;20424;-82
2021/06/02 11:14:44;;;;;;;4.60;2.70;;;16.70;90.00;24.60;99826.00;;;;5015285;28;20186;-83
2021/06/02 11:17:16;;;;;;;5.03;3.00;;;16.70;90.00;24.70;99837.00;;;;5014733;28;20464;-83
2021/06/02 11:19:55;;;;;;;4.60;2.80;;;16.70;90.00;24.70;99840.00;;;;5047537;28;20210;-83
2021/06/02 11:22:30;;;;;;;4.20;2.93;;;16.70;90.00;24.70;99839.00;;;;5017445;28;20533;-83
2021/06/02 11:24:56;;;;;;;4.20;2.73;;;16.70;90.00;24.80;99842.00;;;;5034676;28;20432;-83
2021/06/02 11:27:22;;;;;;;4.77;3.20;;;16.70;90.00;24.80;99836.00;;;;5051255;28;20435;-83
2021/06/02 11:29:51;;;;;;;4.90;3.23;;;16.70;90.40;24.80;99842.00;;;;5051570;28;20433;-82
2021/06/02 11:32:31;;;;;;;4.20;2.73;;;16.70;90.10;24.80;99841.00;;;;5050642;28;20290;-82
2021/06/02 11:35:03;;;;;;;4.50;2.93;;;16.70;90.00;24.60;99828.00;;;;5018839;28;20436;-83
2021/06/02 11:37:31;;;;;;;4.40;2.70;;;16.70;90.00;24.80;99832.00;;;;5018927;28;20428;-83
2021/06/02 11:40:05;;;;;;;4.50;2.83;;;16.70;90.40;24.70;99820.00;;;;5034478;28;20473;-84
2021/06/02 11:42:42;;;;;;;4.53;2.93;;;16.70;90.00;24.70;99829.00;;;;5050724;28;20451;-83